Latest Weather Observations for Braidwood

IDN60901

Issued at 5:21 pm EST Thursday 29 June 2017 (issued every 10 minutes, with the page automatically refreshed every 10 minutes)

About weather observations | Map of Canberra area stations | Latest observations for Canberra area | Other Formats
Station Details ID: 069132 Name: BRAIDWOOD RACECOURSE AWS Lat: -35.43 Lon: 149.78 Height: 665.2 m
Data from the previous 72 hours. | See also: Recent months at Braidwood
Date/Time
EST
Temp
°C
App
Temp
°C
Dew
Point
°C
Rel
Hum
%
Delta-T
°C
Wind Press
QNH
hPa
Press
MSL
hPa
Rain since
9am
mm
Dir  Spd
km/h
Gust
km/h
Spd
kts
Gust
kts
29/05:00pm 7.3 4.2 1.4 66 2.5 NW 7 11 4 6 1018.7 1019.6 0.2
29/04:30pm 9.7 6.3 1.8 58 3.4 NW 9 15 5 8 1018.5 1019.4 0.2
29/04:00pm 11.2 6.5 0.6 48 4.5 WNW 15 19 8 10 1018.3 1019.1 0.2
29/03:30pm 11.6 7.6 0.7 47 4.7 WNW 11 17 6 9 1018.2 1019.0 0.2
29/03:00pm 11.9 8.4 1.0 47 4.7 WNW 9 15 5 8 1018.0 1018.8 0.2
29/02:30pm 12.5 9.9 1.2 46 5.0 NW 4 11 2 6 1017.8 1018.6 0.2
29/02:00pm 12.1 10.3 1.4 48 4.7 CALM 0 0 0 0 1018.0 1018.8 0.2
29/01:30pm 11.6 9.4 1.3 49 4.5 SSE 2 9 1 5 1018.1 1018.9 0.2
29/01:00pm 10.9 8.4 1.4 52 4.1 NW 4 9 2 5 1018.5 1019.4 0.2
29/12:30pm 10.9 8.0 1.4 52 4.1 NNE 6 9 3 5 1019.1 1019.9 0.2
29/12:00pm 10.4 8.4 0.2 49 4.3 CALM 0 0 0 0 1019.6 1020.4 0.2
29/11:30am 9.3 7.6 1.9 60 3.2 CALM 0 0 0 0 1020.3 1021.2 0.0
29/11:00am 7.7 6.2 2.8 71 2.1 CALM 0 0 0 0 1020.8 1021.6 0.0
29/10:30am 6.3 4.7 2.6 77 1.6 CALM 0 2 0 1 1021.1 1022.0 0.0
29/10:00am 3.2 1.4 1.4 88 0.7 CALM 0 0 0 0 1021.4 1022.3 0.0
29/09:30am 2.3 -0.3 0.8 90 0.6 N 4 6 2 3 1021.9 1022.8 0.0
29/09:00am 0.7 -1.3 0.1 96 0.2 CALM 0 4 0 2 1021.8 1022.7 0.0
29/08:30am -1.0 -3.9 -1.4 97 0.1 NNW 4 7 2 4 1021.5 1022.4 0.0
29/08:00am -3.0 -5.8 -3.3 98 0.0 ESE 2 4 1 2 1020.9 1021.7 0.0
29/07:54am -2.8 -6.0 -3.1 98 0.0 SE 4 6 2 3 1020.8 1021.6 0.0
29/07:30am -5.2 -8.3 -5.7 96 0.0 ESE 2 6 1 3 1020.7 1021.5 0.0
29/07:00am -5.2 -8.3 -5.7 96 0.0 SSE 2 4 1 2 1020.8 1021.6 0.0
29/06:30am -4.6 -7.2 -5.0 97 -0.1 CALM 0 0 0 0 1020.9 1021.7 0.0
29/06:00am -4.3 -6.9 -4.8 96 0.0 CALM 0 0 0 0 1020.7 1021.5 0.0
29/05:30am -4.2 -7.5 -4.6 97 0.0 S 4 6 2 3 1020.4 1021.3 0.0
29/05:00am -4.6 -7.2 -5.1 96 0.0 CALM 0 0 0 0 1020.7 1021.5 0.0
29/04:30am -4.8 -7.4 -5.2 97 -0.1 CALM 0 0 0 0 1020.6 1021.4 0.0
29/04:00am -4.9 -7.9 -5.6 95 0.0 SSE 2 4 1 2 1020.7 1021.5 0.0
29/03:30am -2.8 -6.0 -3.1 98 0.0 NNW 4 6 2 3 1021.4 1022.3 0.0
29/03:00am -3.0 -6.7 -3.3 98 0.0 NNW 7 9 4 5 1021.5 1022.4 0.0
29/02:30am -3.5 -6.0 -3.9 97 0.0 CALM 0 2 0 1 1021.2 1022.1 0.0
29/02:00am -2.5 -4.9 -2.9 97 0.0 CALM 0 0 0 0 1021.2 1022.1 0.0
29/01:30am -2.4 -4.8 -2.8 97 0.0 CALM 0 0 0 0 1021.3 1022.2 0.0
29/01:00am -2.3 -4.6 -2.7 97 0.0 CALM 0 0 0 0 1021.5 1022.4 0.0
29/12:30am -3.2 -6.5 -4.0 94 0.1 SSE 4 6 2 3 1021.7 1022.6 0.0
29/12:17am -2.7 -5.5 -3.2 96 0.0 SSE 2 4 1 2 1021.8 1022.7 0.0
29/12:00am -1.3 -3.5 -1.7 97 0.1 CALM 0 0 0 0 1022.2 1023.0 0.0
 
Date/Time
EST
Temp
°C
App
Temp
°C
Dew
Point
°C
Rel
Hum
%
Delta-T
°C
Wind Press
QNH
hPa
Press
MSL
hPa
Rain since
9am
mm
Dir  Spd
km/h
Gust
km/h
Spd
kts
Gust
kts
28/11:30pm -2.2 -5.0 -2.9 95 0.1 SE 2 4 1 2 1022.4 1023.3 0.0
28/11:00pm -1.6 -3.9 -2.3 95 0.2 CALM 0 0 0 0 1022.4 1023.3 0.0
28/10:30pm -0.8 -3.0 -1.4 96 0.2 CALM 0 4 0 2 1022.3 1023.2 0.0
28/10:00pm -0.6 -3.1 -1.3 95 0.2 ESE 2 4 1 2 1022.0 1022.9 0.0
28/09:30pm -0.1 -2.2 -0.8 95 0.3 CALM 0 0 0 0 1021.8 1022.7 0.0
28/09:00pm 0.6 -1.4 -0.1 95 0.3 CALM 0 0 0 0 1021.9 1022.8 0.0
28/08:30pm -0.2 -2.8 -1.8 89 0.6 NE 2 4 1 2 1021.9 1022.8 0.0
28/08:00pm 1.5 -0.4 0.3 92 0.5 CALM 0 0 0 0 1021.8 1022.7 0.0
28/07:30pm 2.0 0.1 0.7 91 0.5 CALM 0 0 0 0 1021.8 1022.7 0.0
28/07:00pm 2.3 0.3 -0.1 84 0.9 CALM 0 0 0 0 1021.6 1022.5 0.0
28/06:30pm 3.9 1.3 1.1 82 1.1 NW 4 7 2 4 1021.3 1022.2 0.0
28/06:00pm 3.9 1.6 0.4 78 1.4 NNW 2 6 1 3 1021.1 1022.0 0.0
28/05:30pm 5.3 2.7 1.1 74 1.7 NNW 4 7 2 4 1021.0 1021.9 0.0
28/05:00pm 7.2 4.6 1.1 65 2.5 NNW 4 7 2 4 1020.7 1021.5 0.0
28/04:30pm 10.3 7.2 1.2 53 3.9 NW 7 11 4 6 1020.8 1021.6 0.0
28/04:00pm 10.9 6.6 1.2 51 4.2 WNW 13 20 7 11 1020.7 1021.5 0.0
28/03:30pm 9.7 7.4 3.0 63 3.0 NNE 4 6 2 3 1020.6 1021.4 0.0
28/03:00pm 9.9 7.3 3.2 63 3.0 N 6 9 3 5 1020.3 1021.2 0.0
28/02:30pm 10.4 7.9 3.9 64 3.0 NNW 6 13 3 7 1020.2 1021.1 0.0
28/02:00pm 10.5 7.0 3.5 62 3.2 WNW 11 17 6 9 1020.2 1021.1 0.0
28/01:30pm 10.3 6.8 3.3 62 3.2 NW 11 19 6 10 1020.3 1021.2 0.0
28/01:00pm 10.1 7.2 4.5 68 2.6 NW 9 19 5 10 1020.4 1021.3 0.0
28/12:30pm 9.8 7.6 5.2 73 2.2 NNW 6 13 3 7 1021.1 1022.0 0.0
28/12:00pm 9.2 6.9 4.8 74 2.0 NNW 6 11 3 6 1021.7 1022.6 0.0
28/11:30am 8.3 6.1 5.1 80 1.5 N 6 11 3 6 1022.0 1022.9 0.0
28/11:00am 8.3 6.6 6.1 86 1.0 N 4 9 2 5 1022.6 1023.5 0.0
28/10:30am 7.0 6.1 5.9 93 0.5 CALM 0 2 0 1 1022.8 1023.7 0.0
28/10:00am 6.3 4.5 5.4 94 0.4 N 4 7 2 4 1022.9 1023.8 0.0
28/09:30am 6.0 4.6 5.4 96 0.3 N 2 6 1 3 1022.7 1023.6 0.0
28/09:00am 5.3 4.1 4.7 96 0.3 CALM 0 0 0 0 1022.7 1023.6 0.0
28/08:51am 5.1 3.5 4.5 96 0.3 NE 2 4 1 2 1022.7 1023.6 0.0
28/08:30am 4.8 3.1 4.2 96 0.3 N 2 4 1 2 1022.9 1023.8 0.0
28/08:00am 4.1 2.7 3.5 96 0.3 CALM 0 0 0 0 1022.7 1023.6 0.0
28/07:30am 3.9 2.5 3.3 96 0.3 CALM 0 0 0 0 1022.5 1023.4 0.0
28/07:00am 3.9 2.1 3.3 96 0.3 NNW 2 4 1 2 1022.5 1023.4 0.0
28/06:30am 4.0 2.6 3.4 96 0.3 CALM 0 0 0 0 1022.2 1023.0 0.0
28/06:00am 3.9 2.1 3.2 95 0.3 NW 2 4 1 2 1022.3 1023.2 0.0
28/05:30am 4.5 3.2 3.9 96 0.3 CALM 0 0 0 0 1021.7 1022.6 0.0
28/05:00am 4.9 3.6 4.2 95 0.3 CALM 0 0 0 0 1022.3 1023.2 0.0
28/04:30am 5.1 3.9 4.4 95 0.3 CALM 0 0 0 0 1022.3 1023.2 0.0
28/04:00am 5.3 4.1 4.6 95 0.3 CALM 0 2 0 1 1022.7 1023.6 0.0
28/03:53am 5.4 4.2 4.5 94 0.4 CALM 0 2 0 1 1022.7 1023.6 0.0
28/03:51am 5.3 4.1 4.4 94 0.4 CALM 0 2 0 1 1022.7 1023.6 0.0
28/03:30am 5.5 4.3 4.6 94 0.4 CALM 0 4 0 2 1022.8 1023.7 0.0
28/03:00am 5.8 4.3 5.1 95 0.3 N 2 6 1 3 1023.0 1023.9 0.0
28/02:30am 5.6 4.1 4.9 95 0.3 NW 2 6 1 3 1023.1 1024.0 0.0
28/02:00am 5.0 3.7 4.1 94 0.4 CALM 0 0 0 0 1022.9 1023.8 0.0
28/01:30am 5.1 3.9 4.4 95 0.3 CALM 0 0 0 0 1023.1 1024.0 0.0
28/01:00am 4.8 3.5 3.9 94 0.4 CALM 0 0 0 0 1023.0 1023.9 0.0
28/12:30am 4.6 3.2 3.6 93 0.4 CALM 0 0 0 0 1023.2 1024.1 0.0
28/12:00am 5.2 3.9 4.3 94 0.4 CALM 0 0 0 0 1023.8 1024.7 0.0
 
Date/Time
EST
Temp
°C
App
Temp
°C
Dew
Point
°C
Rel
Hum
%
Delta-T
°C
Wind Press
QNH
hPa
Press
MSL
hPa
Rain since
9am
mm
Dir  Spd
km/h
Gust
km/h
Spd
kts
Gust
kts
27/11:30pm 4.8 3.4 3.8 93 0.4 CALM 0 0 0 0 1023.8 1024.7 0.0
27/11:24pm 4.9 3.6 3.9 93 0.4 CALM 0 0 0 0 1023.9 1024.8 0.0
27/11:00pm 4.9 3.6 3.9 93 0.4 CALM 0 0 0 0 1024.4 1025.3 0.0
27/10:45pm 5.0 3.7 4.0 93 0.4 CALM 0 0 0 0 1024.5 1025.4 0.0
27/10:30pm 5.1 3.8 4.2 94 0.4 CALM 0 0 0 0 1024.4 1025.3 0.0
27/10:00pm 4.9 3.6 4.2 95 0.3 CALM 0 0 0 0 1024.3 1025.2 0.0
27/09:30pm 4.3 2.9 3.3 93 0.4 CALM 0 0 0 0 1024.2 1025.1 0.0
27/09:00pm 4.1 2.6 2.9 92 0.5 CALM 0 0 0 0 1024.2 1025.1 0.0
27/08:30pm 4.1 2.5 2.6 90 0.6 CALM 0 0 0 0 1024.3 1025.2 0.0
27/08:23pm 4.4 2.9 3.1 91 0.6 CALM 0 0 0 0 1024.3 1025.2 0.0
27/08:00pm 4.9 3.5 3.4 90 0.6 CALM 0 0 0 0 1024.4 1025.3 0.0
27/07:55pm 4.9 3.5 3.4 90 0.6 CALM 0 0 0 0 1024.4 1025.3 0.0
27/07:30pm 4.8 3.3 3.0 88 0.8 CALM 0 0 0 0 1024.5 1025.4 0.0
27/07:00pm 5.3 3.8 3.2 86 0.9 CALM 0 0 0 0 1024.4 1025.3 0.0
27/06:30pm 5.9 4.6 3.9 87 0.9 CALM 0 0 0 0 1024.2 1025.1 0.0
27/06:00pm 5.6 4.1 3.1 84 1.1 CALM 0 0 0 0 1024.0 1024.9 0.0
27/05:30pm 5.7 4.1 2.7 81 1.3 CALM 0 0 0 0 1024.0 1024.9 0.0
27/05:00pm 7.4 5.6 3.6 77 1.7 NNE 2 4 1 2 1023.9 1024.8 0.0
27/04:30pm 8.3 6.2 3.9 74 2.0 NE 4 7 2 4 1023.4 1024.3 0.0
27/04:00pm 9.0 6.9 3.8 70 2.3 N 4 11 2 6 1023.5 1024.5 0.0
27/03:30pm 9.4 6.9 3.8 68 2.5 NNE 6 9 3 5 1023.5 1024.5 0.0
27/03:00pm 9.8 7.3 3.8 66 2.7 NNE 6 13 3 7 1023.6 1024.6 0.0
27/02:30pm 10.2 7.7 3.9 65 2.9 NNE 6 13 3 7 1023.8 1024.7 0.0
27/02:00pm 10.1 8.0 3.8 65 2.9 NNE 4 7 2 4 1024.0 1024.9 0.0
27/01:30pm 10.9 8.5 4.1 63 3.2 NNE 6 11 3 6 1024.3 1025.2 0.0
27/01:00pm 10.6 8.1 3.6 62 3.2 N 6 13 3 7 1024.7 1025.6 0.0
27/12:30pm 10.6 8.0 3.2 60 3.4 N 6 11 3 6 1025.0 1026.0 0.0
27/12:00pm 10.1 7.5 3.2 62 3.1 N 6 9 3 5 1025.5 1026.4 0.0
27/11:30am 9.3 6.7 3.1 65 2.8 NE 6 9 3 5 1025.8 1026.7 0.0
27/11:00am 8.6 7.0 2.4 65 2.7 CALM 0 6 0 3 1026.4 1027.4 0.0
27/10:30am 7.7 5.6 1.8 66 2.5 NNW 2 6 1 3 1026.6 1027.6 0.0
27/10:00am 7.7 6.2 3.2 73 2.0 CALM 0 0 0 0 1026.8 1027.8 0.0
27/09:30am 6.2 4.8 3.4 82 1.2 CALM 0 0 0 0 1026.8 1027.8 0.0
27/09:00am 3.0 1.3 2.0 93 0.4 CALM 0 0 0 0 1026.5 1027.5 0.0
27/08:30am 0.3 -1.7 -0.1 97 0.2 CALM 0 0 0 0 1026.5 1027.5 0.0
27/08:11am -0.7 -2.8 -1.1 97 0.1 CALM 0 0 0 0 1026.3 1027.3 0.0
27/08:00am -1.2 -3.4 -1.6 97 0.1 CALM 0 0 0 0 1026.3 1027.3 0.0
27/07:30am -2.8 -5.6 -3.2 97 0.0 S 2 4 1 2 1026.3 1027.3 0.0
27/07:00am -2.1 -4.8 -2.5 97 0.0 SSE 2 4 1 2 1026.1 1027.1 0.0
27/06:59am -2.1 -4.8 -2.5 97 0.0 SSE 2 4 1 2 1026.1 1027.1 0.0
27/06:51am -2.1 -5.2 -2.5 97 0.0 SSE 4 4 2 2 1026.0 1026.9 0.0
27/06:30am -2.9 -5.4 -3.7 94 0.1 CALM 0 0 0 0 1026.0 1026.9 0.0
27/06:07am -2.4 -4.8 -3.1 95 0.1 CALM 0 0 0 0 1026.0 1026.9 0.0
27/06:00am -1.6 -3.9 -2.2 96 0.1 CALM 0 0 0 0 1026.0 1026.9 0.0
27/05:30am -1.4 -3.7 -2.1 95 0.2 CALM 0 0 0 0 1025.7 1026.6 0.0
27/05:00am -0.5 -2.7 -1.2 95 0.2 CALM 0 0 0 0 1025.6 1026.5 0.0
27/04:30am -0.1 -2.3 -1.2 92 0.4 CALM 0 0 0 0 1025.4 1026.3 0.0
27/04:00am 0.3 -1.8 -0.8 92 0.4 CALM 0 4 0 2 1025.6 1026.5 0.0
27/03:30am 1.6 -0.2 0.9 95 0.3 CALM 0 0 0 0 1025.4 1026.3 0.0
27/03:00am 1.7 -0.2 0.7 93 0.4 CALM 0 0 0 0 1025.5 1026.4 0.0
27/02:30am 2.2 0.4 1.5 95 0.3 CALM 0 0 0 0 1025.8 1026.7 0.0
27/02:00am 1.3 -1.0 0.3 93 0.4 SE 2 2 1 1 1025.6 1026.5 0.0
27/01:30am 2.0 0.2 1.3 95 0.3 CALM 0 0 0 0 1025.1 1026.1 0.0
27/01:00am 1.1 -0.9 0.2 94 0.3 CALM 0 0 0 0 1025.4 1026.3 0.0
27/12:30am 1.1 -0.9 0.2 94 0.3 CALM 0 0 0 0 1025.5 1026.4 0.0
27/12:00am 1.4 -0.5 0.5 94 0.3 CALM 0 0 0 0 1025.4 1026.3 0.0
 
Date/Time
EST
Temp
°C
App
Temp
°C
Dew
Point
°C
Rel
Hum
%
Delta-T
°C
Wind Press
QNH
hPa
Press
MSL
hPa
Rain since
9am
mm
Dir  Spd
km/h
Gust
km/h
Spd
kts
Gust
kts
26/11:30pm 1.4 -0.6 0.2 92 0.5 CALM 0 0 0 0 1025.5 1026.4 0.0
26/11:00pm 2.0 0.2 1.0 93 0.4 CALM 0 0 0 0 1025.8 1026.7 0.0
26/10:30pm 1.9 0.0 0.7 92 0.5 CALM 0 0 0 0 1025.5 1026.4 0.0
26/10:00pm 2.0 -0.3 0.4 89 0.6 SSE 2 6 1 3 1025.2 1026.2 0.0
26/09:30pm 2.3 -0.4 0.5 88 0.7 ESE 4 6 2 3 1025.0 1026.0 0.0
26/09:00pm 3.1 1.2 0.7 84 0.9 CALM 0 2 0 1 1024.8 1025.8 0.0
26/08:30pm 4.1 1.5 0.8 79 1.3 SE 4 4 2 2 1024.7 1025.6 0.0
26/08:00pm 6.1 3.8 2.7 79 1.5 SSW 4 6 2 3 1024.5 1025.4 0.0
26/07:30pm 6.2 4.3 2.7 78 1.5 S 2 2 1 1 1024.3 1025.2 0.0
26/07:00pm 6.4 4.5 2.9 78 1.5 S 2 6 1 3 1024.0 1024.9 0.0
26/06:30pm 5.1 2.4 0.5 72 1.9 ENE 4 6 2 3 1023.4 1024.3 0.0
26/06:00pm 5.7 3.8 0.3 68 2.2 CALM 0 0 0 0 1022.9 1023.8 0.0
26/05:30pm 7.0 5.3 1.7 69 2.2 CALM 0 0 0 0 1022.5 1023.4 0.0

Latest Capital City Observations: Canberra | Sydney | Melbourne | Brisbane | Adelaide | Perth | Hobart | Darwin

Other Formats:

Comma delimited format used in spreadsheet applications
http://www.bom.gov.au/fwo/IDN60903/IDN60903.94927.axf

JavaScript Object Notation format (JSON) in row-major order
http://www.bom.gov.au/fwo/IDN60903/IDN60903.94927.json